sensor_id;sensor_type;location;lat;lon;timestamp;P1;durP1;ratioP1;P2;durP2;ratioP2
79460;SDS011;68929;42.666;23.324;2023-04-09T00:01:02;11.80;;;10.52;;
79460;SDS011;68929;42.666;23.324;2023-04-09T00:03:31;10.70;;;9.60;;
79460;SDS011;68929;42.666;23.324;2023-04-09T00:05:57;10.88;;;9.73;;
79460;SDS011;68929;42.666;23.324;2023-04-09T00:08:23;11.70;;;10.60;;
79460;SDS011;68929;42.666;23.324;2023-04-09T00:10:49;11.85;;;10.65;;
79460;SDS011;68929;42.666;23.324;2023-04-09T00:13:15;9.82;;;8.93;;
79460;SDS011;68929;42.666;23.324;2023-04-09T00:15:40;10.98;;;9.75;;
79460;SDS011;68929;42.666;23.324;2023-04-09T00:18:06;10.63;;;9.55;;
79460;SDS011;68929;42.666;23.324;2023-04-09T00:20:31;11.35;;;10.25;;
79460;SDS011;68929;42.666;23.324;2023-04-09T00:22:56;9.50;;;8.60;;
79460;SDS011;68929;42.666;23.324;2023-04-09T00:25:22;10.48;;;9.48;;
79460;SDS011;68929;42.666;23.324;2023-04-09T00:27:48;10.07;;;9.18;;
79460;SDS011;68929;42.666;23.324;2023-04-09T00:30:15;11.68;;;10.57;;
79460;SDS011;68929;42.666;23.324;2023-04-09T00:32:40;8.90;;;8.10;;
79460;SDS011;68929;42.666;23.324;2023-04-09T00:35:06;9.32;;;8.43;;
79460;SDS011;68929;42.666;23.324;2023-04-09T00:37:31;10.15;;;9.18;;
79460;SDS011;68929;42.666;23.324;2023-04-09T00:39:57;10.18;;;9.18;;
79460;SDS011;68929;42.666;23.324;2023-04-09T00:42:22;9.43;;;8.52;;
79460;SDS011;68929;42.666;23.324;2023-04-09T00:44:48;9.30;;;8.40;;
79460;SDS011;68929;42.666;23.324;2023-04-09T00:47:13;9.65;;;8.75;;
79460;SDS011;68929;42.666;23.324;2023-04-09T00:49:38;9.05;;;8.25;;
79460;SDS011;68929;42.666;23.324;2023-04-09T00:52:04;9.48;;;8.57;;
79460;SDS011;68929;42.666;23.324;2023-04-09T00:54:30;9.38;;;8.48;;
79460;SDS011;68929;42.666;23.324;2023-04-09T00:56:56;9.73;;;8.82;;
79460;SDS011;68929;42.666;23.324;2023-04-09T00:59:23;9.82;;;8.93;;
79460;SDS011;68929;42.666;23.324;2023-04-09T01:01:49;8.85;;;8.05;;
79460;SDS011;68929;42.666;23.324;2023-04-09T01:04:15;11.18;;;10.07;;
79460;SDS011;68929;42.666;23.324;2023-04-09T01:06:50;8.80;;;8.00;;
79460;SDS011;68929;42.666;23.324;2023-04-09T01:11:55;10.38;;;9.40;;
79460;SDS011;68929;42.666;23.324;2023-04-09T01:14:36;10.52;;;9.43;;
79460;SDS011;68929;42.666;23.324;2023-04-09T01:17:14;9.57;;;8.68;;
79460;SDS011;68929;42.666;23.324;2023-04-09T01:19:57;10.05;;;9.07;;
79460;SDS011;68929;42.666;23.324;2023-04-09T01:28:53;9.48;;;8.57;;
79460;SDS011;68929;42.666;23.324;2023-04-09T01:31:19;9.35;;;8.40;;
79460;SDS011;68929;42.666;23.324;2023-04-09T01:33:48;9.23;;;8.35;;
79460;SDS011;68929;42.666;23.324;2023-04-09T01:36:15;10.23;;;8.70;;
79460;SDS011;68929;42.666;23.324;2023-04-09T01:38:42;10.25;;;9.25;;
79460;SDS011;68929;42.666;23.324;2023-04-09T01:41:11;9.52;;;8.63;;
79460;SDS011;68929;42.666;23.324;2023-04-09T01:43:41;11.05;;;9.95;;
79460;SDS011;68929;42.666;23.324;2023-04-09T01:46:07;9.90;;;8.82;;
79460;SDS011;68929;42.666;23.324;2023-04-09T01:48:34;9.32;;;8.43;;
79460;SDS011;68929;42.666;23.324;2023-04-09T01:51:01;9.40;;;8.50;;
79460;SDS011;68929;42.666;23.324;2023-04-09T01:53:26;8.77;;;7.82;;
79460;SDS011;68929;42.666;23.324;2023-04-09T01:55:52;9.18;;;8.27;;
79460;SDS011;68929;42.666;23.324;2023-04-09T01:58:19;8.75;;;7.95;;
79460;SDS011;68929;42.666;23.324;2023-04-09T02:00:46;8.75;;;7.90;;
79460;SDS011;68929;42.666;23.324;2023-04-09T02:05:45;9.50;;;8.60;;
79460;SDS011;68929;42.666;23.324;2023-04-09T02:08:18;9.73;;;8.75;;
79460;SDS011;68929;42.666;23.324;2023-04-09T02:10:46;10.40;;;9.35;;
79460;SDS011;68929;42.666;23.324;2023-04-09T02:13:17;9.30;;;8.40;;
79460;SDS011;68929;42.666;23.324;2023-04-09T02:15:45;9.73;;;8.73;;
79460;SDS011;68929;42.666;23.324;2023-04-09T02:18:24;11.05;;;9.60;;
79460;SDS011;68929;42.666;23.324;2023-04-09T02:20:55;11.98;;;9.20;;
79460;SDS011;68929;42.666;23.324;2023-04-09T02:23:21;10.27;;;9.32;;
79460;SDS011;68929;42.666;23.324;2023-04-09T02:25:47;10.20;;;9.20;;
79460;SDS011;68929;42.666;23.324;2023-04-09T02:28:13;10.05;;;9.07;;
79460;SDS011;68929;42.666;23.324;2023-04-09T02:30:38;9.75;;;8.85;;
79460;SDS011;68929;42.666;23.324;2023-04-09T02:33:03;10.18;;;8.93;;
79460;SDS011;68929;42.666;23.324;2023-04-09T02:35:29;12.93;;;9.45;;
79460;SDS011;68929;42.666;23.324;2023-04-09T02:37:54;11.77;;;9.32;;
79460;SDS011;68929;42.666;23.324;2023-04-09T02:40:20;10.27;;;9.38;;
79460;SDS011;68929;42.666;23.324;2023-04-09T02:42:45;10.18;;;9.18;;
79460;SDS011;68929;42.666;23.324;2023-04-09T02:45:11;11.13;;;10.02;;
79460;SDS011;68929;42.666;23.324;2023-04-09T02:47:36;10.50;;;9.40;;
79460;SDS011;68929;42.666;23.324;2023-04-09T02:50:02;10.40;;;9.40;;
79460;SDS011;68929;42.666;23.324;2023-04-09T02:52:27;9.50;;;8.60;;
79460;SDS011;68929;42.666;23.324;2023-04-09T02:54:53;10.98;;;9.88;;
79460;SDS011;68929;42.666;23.324;2023-04-09T02:57:18;10.27;;;9.27;;
79460;SDS011;68929;42.666;23.324;2023-04-09T02:59:44;10.55;;;8.95;;
79460;SDS011;68929;42.666;23.324;2023-04-09T03:02:10;11.13;;;10.02;;
79460;SDS011;68929;42.666;23.324;2023-04-09T03:04:36;10.63;;;9.45;;
79460;SDS011;68929;42.666;23.324;2023-04-09T03:07:02;9.45;;;8.55;;
79460;SDS011;68929;42.666;23.324;2023-04-09T03:09:28;11.05;;;9.52;;
79460;SDS011;68929;42.666;23.324;2023-04-09T03:11:54;10.07;;;9.10;;
79460;SDS011;68929;42.666;23.324;2023-04-09T03:14:21;10.15;;;9.13;;
79460;SDS011;68929;42.666;23.324;2023-04-09T03:16:47;9.63;;;8.73;;
79460;SDS011;68929;42.666;23.324;2023-04-09T03:19:12;9.65;;;8.65;;
79460;SDS011;68929;42.666;23.324;2023-04-09T03:21:38;10.00;;;9.00;;
79460;SDS011;68929;42.666;23.324;2023-04-09T03:24:03;10.80;;;9.40;;
79460;SDS011;68929;42.666;23.324;2023-04-09T03:26:29;10.90;;;9.80;;
79460;SDS011;68929;42.666;23.324;2023-04-09T03:29:00;11.13;;;9.30;;
79460;SDS011;68929;42.666;23.324;2023-04-09T03:31:26;10.80;;;9.65;;
79460;SDS011;68929;42.666;23.324;2023-04-09T03:33:51;10.50;;;9.40;;
79460;SDS011;68929;42.666;23.324;2023-04-09T03:36:20;11.05;;;10.02;;
79460;SDS011;68929;42.666;23.324;2023-04-09T03:38:46;10.52;;;9.43;;
79460;SDS011;68929;42.666;23.324;2023-04-09T03:41:11;10.50;;;9.50;;
79460;SDS011;68929;42.666;23.324;2023-04-09T03:43:37;11.07;;;9.98;;
79460;SDS011;68929;42.666;23.324;2023-04-09T03:46:10;12.25;;;9.98;;
79460;SDS011;68929;42.666;23.324;2023-04-09T03:48:39;9.57;;;8.68;;
79460;SDS011;68929;42.666;23.324;2023-04-09T03:51:05;10.80;;;9.80;;
79460;SDS011;68929;42.666;23.324;2023-04-09T03:53:30;10.70;;;9.13;;
79460;SDS011;68929;42.666;23.324;2023-04-09T03:55:56;11.45;;;10.35;;
79460;SDS011;68929;42.666;23.324;2023-04-09T03:58:21;11.35;;;10.25;;
79460;SDS011;68929;42.666;23.324;2023-04-09T04:00:46;12.15;;;10.27;;
79460;SDS011;68929;42.666;23.324;2023-04-09T04:03:12;10.10;;;9.20;;
79460;SDS011;68929;42.666;23.324;2023-04-09T04:05:40;12.18;;;11.00;;
79460;SDS011;68929;42.666;23.324;2023-04-09T04:08:05;13.73;;;11.43;;
79460;SDS011;68929;42.666;23.324;2023-04-09T04:10:32;12.23;;;10.60;;
79460;SDS011;68929;42.666;23.324;2023-04-09T04:12:58;11.68;;;10.38;;
79460;SDS011;68929;42.666;23.324;2023-04-09T04:15:23;11.55;;;10.45;;
79460;SDS011;68929;42.666;23.324;2023-04-09T04:17:49;11.77;;;10.27;;
79460;SDS011;68929;42.666;23.324;2023-04-09T04:20:14;12.13;;;11.02;;
79460;SDS011;68929;42.666;23.324;2023-04-09T04:22:39;11.63;;;10.48;;
79460;SDS011;68929;42.666;23.324;2023-04-09T04:25:05;10.98;;;9.88;;
79460;SDS011;68929;42.666;23.324;2023-04-09T04:27:30;12.98;;;10.88;;
79460;SDS011;68929;42.666;23.324;2023-04-09T04:29:56;11.45;;;10.30;;
79460;SDS011;68929;42.666;23.324;2023-04-09T04:32:22;11.65;;;10.45;;
79460;SDS011;68929;42.666;23.324;2023-04-09T04:34:48;10.70;;;9.60;;
79460;SDS011;68929;42.666;23.324;2023-04-09T04:37:14;14.95;;;13.35;;
79460;SDS011;68929;42.666;23.324;2023-04-09T04:39:39;11.00;;;9.90;;
79460;SDS011;68929;42.666;23.324;2023-04-09T04:42:05;14.15;;;12.75;;
79460;SDS011;68929;42.666;23.324;2023-04-09T04:44:31;15.77;;;14.18;;
79460;SDS011;68929;42.666;23.324;2023-04-09T04:46:56;15.45;;;13.95;;
79460;SDS011;68929;42.666;23.324;2023-04-09T04:49:21;14.40;;;12.50;;
79460;SDS011;68929;42.666;23.324;2023-04-09T04:51:47;13.27;;;11.38;;
79460;SDS011;68929;42.666;23.324;2023-04-09T04:54:12;15.75;;;14.15;;
79460;SDS011;68929;42.666;23.324;2023-04-09T04:56:38;14.93;;;13.00;;
79460;SDS011;68929;42.666;23.324;2023-04-09T04:59:03;13.52;;;12.07;;
79460;SDS011;68929;42.666;23.324;2023-04-09T05:01:29;15.75;;;13.27;;
79460;SDS011;68929;42.666;23.324;2023-04-09T05:03:54;12.50;;;11.30;;
79460;SDS011;68929;42.666;23.324;2023-04-09T05:06:20;14.40;;;12.85;;
79460;SDS011;68929;42.666;23.324;2023-04-09T05:08:45;23.90;;;18.63;;
79460;SDS011;68929;42.666;23.324;2023-04-09T05:11:11;12.95;;;11.57;;
79460;SDS011;68929;42.666;23.324;2023-04-09T05:13:37;17.10;;;15.35;;
79460;SDS011;68929;42.666;23.324;2023-04-09T05:16:02;13.07;;;11.75;;
79460;SDS011;68929;42.666;23.324;2023-04-09T05:18:27;16.98;;;14.63;;
79460;SDS011;68929;42.666;23.324;2023-04-09T05:20:53;16.77;;;15.07;;
79460;SDS011;68929;42.666;23.324;2023-04-09T05:23:18;12.85;;;11.57;;
79460;SDS011;68929;42.666;23.324;2023-04-09T05:25:44;15.98;;;14.32;;
79460;SDS011;68929;42.666;23.324;2023-04-09T05:28:09;14.07;;;12.50;;
79460;SDS011;68929;42.666;23.324;2023-04-09T05:30:37;14.32;;;12.93;;
79460;SDS011;68929;42.666;23.324;2023-04-09T05:33:03;16.17;;;14.48;;
79460;SDS011;68929;42.666;23.324;2023-04-09T05:35:28;14.93;;;12.70;;
79460;SDS011;68929;42.666;23.324;2023-04-09T05:37:54;15.38;;;13.55;;
79460;SDS011;68929;42.666;23.324;2023-04-09T05:40:19;13.98;;;12.57;;
79460;SDS011;68929;42.666;23.324;2023-04-09T05:42:45;16.55;;;14.95;;
79460;SDS011;68929;42.666;23.324;2023-04-09T05:45:10;16.40;;;13.07;;
79460;SDS011;68929;42.666;23.324;2023-04-09T05:47:35;15.50;;;13.40;;
79460;SDS011;68929;42.666;23.324;2023-04-09T05:50:01;17.42;;;15.63;;
79460;SDS011;68929;42.666;23.324;2023-04-09T05:52:27;15.38;;;13.77;;
79460;SDS011;68929;42.666;23.324;2023-04-09T05:54:52;17.63;;;15.65;;
79460;SDS011;68929;42.666;23.324;2023-04-09T05:57:17;16.10;;;13.48;;
79460;SDS011;68929;42.666;23.324;2023-04-09T05:59:43;16.88;;;14.65;;
79460;SDS011;68929;42.666;23.324;2023-04-09T06:02:08;19.98;;;16.67;;
79460;SDS011;68929;42.666;23.324;2023-04-09T06:04:34;17.92;;;15.60;;
79460;SDS011;68929;42.666;23.324;2023-04-09T06:06:59;19.98;;;16.15;;
79460;SDS011;68929;42.666;23.324;2023-04-09T06:09:25;17.77;;;15.05;;
79460;SDS011;68929;42.666;23.324;2023-04-09T06:11:51;21.67;;;17.95;;
79460;SDS011;68929;42.666;23.324;2023-04-09T06:14:17;16.92;;;14.75;;
79460;SDS011;68929;42.666;23.324;2023-04-09T06:16:42;19.08;;;16.13;;
79460;SDS011;68929;42.666;23.324;2023-04-09T06:19:08;20.63;;;15.80;;
79460;SDS011;68929;42.666;23.324;2023-04-09T06:21:33;18.73;;;15.20;;
79460;SDS011;68929;42.666;23.324;2023-04-09T06:23:58;14.93;;;13.38;;
79460;SDS011;68929;42.666;23.324;2023-04-09T06:26:24;16.05;;;13.90;;
79460;SDS011;68929;42.666;23.324;2023-04-09T06:28:49;17.45;;;14.35;;
79460;SDS011;68929;42.666;23.324;2023-04-09T06:31:14;16.30;;;13.73;;
79460;SDS011;68929;42.666;23.324;2023-04-09T06:33:40;13.43;;;11.98;;
79460;SDS011;68929;42.666;23.324;2023-04-09T06:36:05;13.57;;;12.13;;
79460;SDS011;68929;42.666;23.324;2023-04-09T06:38:31;13.57;;;11.35;;
79460;SDS011;68929;42.666;23.324;2023-04-09T06:40:57;14.68;;;13.10;;
79460;SDS011;68929;42.666;23.324;2023-04-09T06:43:22;14.45;;;12.85;;
79460;SDS011;68929;42.666;23.324;2023-04-09T06:45:48;12.40;;;11.07;;
79460;SDS011;68929;42.666;23.324;2023-04-09T06:48:13;16.83;;;15.05;;
79460;SDS011;68929;42.666;23.324;2023-04-09T06:50:38;15.05;;;13.38;;
79460;SDS011;68929;42.666;23.324;2023-04-09T06:53:05;14.52;;;12.52;;
79460;SDS011;68929;42.666;23.324;2023-04-09T06:55:30;15.80;;;13.00;;
79460;SDS011;68929;42.666;23.324;2023-04-09T06:57:56;14.25;;;11.57;;
79460;SDS011;68929;42.666;23.324;2023-04-09T07:00:21;15.07;;;12.85;;
79460;SDS011;68929;42.666;23.324;2023-04-09T07:02:47;15.63;;;13.18;;
79460;SDS011;68929;42.666;23.324;2023-04-09T07:05:13;10.65;;;9.35;;
79460;SDS011;68929;42.666;23.324;2023-04-09T07:07:38;12.60;;;10.88;;
79460;SDS011;68929;42.666;23.324;2023-04-09T07:10:04;14.55;;;11.65;;
79460;SDS011;68929;42.666;23.324;2023-04-09T07:12:30;14.40;;;12.40;;
79460;SDS011;68929;42.666;23.324;2023-04-09T07:14:58;13.25;;;11.32;;
79460;SDS011;68929;42.666;23.324;2023-04-09T07:17:23;13.35;;;11.95;;
79460;SDS011;68929;42.666;23.324;2023-04-09T07:19:49;12.48;;;11.18;;
79460;SDS011;68929;42.666;23.324;2023-04-09T07:22:15;11.32;;;10.13;;
79460;SDS011;68929;42.666;23.324;2023-04-09T07:24:41;11.88;;;10.68;;
79460;SDS011;68929;42.666;23.324;2023-04-09T07:27:07;12.45;;;11.05;;
79460;SDS011;68929;42.666;23.324;2023-04-09T07:29:32;11.90;;;10.70;;
79460;SDS011;68929;42.666;23.324;2023-04-09T07:31:57;11.02;;;9.82;;
79460;SDS011;68929;42.666;23.324;2023-04-09T07:34:25;11.70;;;10.48;;
79460;SDS011;68929;42.666;23.324;2023-04-09T07:36:50;12.85;;;11.55;;
79460;SDS011;68929;42.666;23.324;2023-04-09T07:39:16;12.07;;;10.88;;
79460;SDS011;68929;42.666;23.324;2023-04-09T07:41:42;12.85;;;11.32;;
79460;SDS011;68929;42.666;23.324;2023-04-09T07:44:08;13.48;;;12.07;;
79460;SDS011;68929;42.666;23.324;2023-04-09T07:46:33;12.23;;;10.95;;
79460;SDS011;68929;42.666;23.324;2023-04-09T07:48:58;13.43;;;12.02;;
79460;SDS011;68929;42.666;23.324;2023-04-09T07:51:24;14.93;;;13.05;;
79460;SDS011;68929;42.666;23.324;2023-04-09T07:53:50;13.82;;;12.02;;
79460;SDS011;68929;42.666;23.324;2023-04-09T07:56:15;12.20;;;11.00;;
79460;SDS011;68929;42.666;23.324;2023-04-09T07:58:40;12.88;;;11.35;;
79460;SDS011;68929;42.666;23.324;2023-04-09T08:01:09;13.93;;;11.88;;
79460;SDS011;68929;42.666;23.324;2023-04-09T08:03:39;13.35;;;11.75;;
79460;SDS011;68929;42.666;23.324;2023-04-09T08:06:06;12.45;;;11.15;;
79460;SDS011;68929;42.666;23.324;2023-04-09T08:08:36;15.15;;;12.27;;
79460;SDS011;68929;42.666;23.324;2023-04-09T08:11:05;12.38;;;11.13;;
79460;SDS011;68929;42.666;23.324;2023-04-09T08:13:48;12.73;;;11.43;;
79460;SDS011;68929;42.666;23.324;2023-04-09T08:16:13;14.40;;;12.45;;
79460;SDS011;68929;42.666;23.324;2023-04-09T08:18:39;14.00;;;12.57;;
79460;SDS011;68929;42.666;23.324;2023-04-09T08:21:04;13.80;;;11.63;;
79460;SDS011;68929;42.666;23.324;2023-04-09T08:23:31;14.15;;;11.82;;
79460;SDS011;68929;42.666;23.324;2023-04-09T08:25:56;12.35;;;11.13;;
79460;SDS011;68929;42.666;23.324;2023-04-09T08:28:22;14.88;;;13.38;;
79460;SDS011;68929;42.666;23.324;2023-04-09T08:30:52;15.75;;;12.40;;
79460;SDS011;68929;42.666;23.324;2023-04-09T08:33:22;14.02;;;12.25;;
79460;SDS011;68929;42.666;23.324;2023-04-09T08:35:47;15.60;;;13.43;;
79460;SDS011;68929;42.666;23.324;2023-04-09T08:38:13;14.13;;;12.63;;
79460;SDS011;68929;42.666;23.324;2023-04-09T08:40:39;12.60;;;11.40;;
79460;SDS011;68929;42.666;23.324;2023-04-09T08:43:05;13.07;;;10.63;;
79460;SDS011;68929;42.666;23.324;2023-04-09T08:45:32;13.80;;;12.07;;
79460;SDS011;68929;42.666;23.324;2023-04-09T08:47:59;14.70;;;13.05;;
79460;SDS011;68929;42.666;23.324;2023-04-09T08:50:28;14.52;;;11.45;;
79460;SDS011;68929;42.666;23.324;2023-04-09T08:52:55;14.40;;;12.57;;
79460;SDS011;68929;42.666;23.324;2023-04-09T08:55:22;16.05;;;14.45;;
79460;SDS011;68929;42.666;23.324;2023-04-09T08:57:48;17.15;;;14.30;;
79460;SDS011;68929;42.666;23.324;2023-04-09T09:00:13;16.42;;;14.63;;
79460;SDS011;68929;42.666;23.324;2023-04-09T09:02:59;16.27;;;13.50;;
79460;SDS011;68929;42.666;23.324;2023-04-09T09:06:01;16.52;;;14.48;;
79460;SDS011;68929;42.666;23.324;2023-04-09T09:08:23;14.77;;;12.48;;
79460;SDS011;68929;42.666;23.324;2023-04-09T09:10:50;15.73;;;14.13;;
79460;SDS011;68929;42.666;23.324;2023-04-09T09:13:22;14.38;;;12.77;;
79460;SDS011;68929;42.666;23.324;2023-04-09T09:15:50;13.88;;;12.15;;
79460;SDS011;68929;42.666;23.324;2023-04-09T09:18:19;15.30;;;13.70;;
79460;SDS011;68929;42.666;23.324;2023-04-09T09:21:13;13.88;;;12.55;;
79460;SDS011;68929;42.666;23.324;2023-04-09T09:23:43;12.05;;;10.60;;
79460;SDS011;68929;42.666;23.324;2023-04-09T09:26:10;12.48;;;11.23;;
79460;SDS011;68929;42.666;23.324;2023-04-09T09:28:47;13.25;;;11.85;;
79460;SDS011;68929;42.666;23.324;2023-04-09T09:31:13;14.15;;;12.68;;
79460;SDS011;68929;42.666;23.324;2023-04-09T09:33:40;12.77;;;11.50;;
79460;SDS011;68929;42.666;23.324;2023-04-09T09:36:06;12.48;;;11.18;;
79460;SDS011;68929;42.666;23.324;2023-04-09T09:38:33;12.95;;;11.70;;
79460;SDS011;68929;42.666;23.324;2023-04-09T09:41:17;12.52;;;11.25;;
79460;SDS011;68929;42.666;23.324;2023-04-09T09:43:43;14.88;;;11.70;;
79460;SDS011;68929;42.666;23.324;2023-04-09T09:46:09;12.68;;;11.52;;
79460;SDS011;68929;42.666;23.324;2023-04-09T09:48:35;11.20;;;10.10;;
79460;SDS011;68929;42.666;23.324;2023-04-09T09:51:09;11.45;;;10.35;;
79460;SDS011;68929;42.666;23.324;2023-04-09T09:53:39;11.40;;;10.40;;
79460;SDS011;68929;42.666;23.324;2023-04-09T09:56:11;10.60;;;9.70;;
79460;SDS011;68929;42.666;23.324;2023-04-09T09:58:40;11.15;;;10.13;;
79460;SDS011;68929;42.666;23.324;2023-04-09T10:01:12;11.20;;;10.10;;
79460;SDS011;68929;42.666;23.324;2023-04-09T10:03:38;10.93;;;9.82;;
79460;SDS011;68929;42.666;23.324;2023-04-09T10:06:07;10.50;;;9.50;;
79460;SDS011;68929;42.666;23.324;2023-04-09T10:08:33;11.80;;;9.82;;
79460;SDS011;68929;42.666;23.324;2023-04-09T10:11:02;10.50;;;9.50;;
79460;SDS011;68929;42.666;23.324;2023-04-09T10:13:32;10.65;;;9.52;;
79460;SDS011;68929;42.666;23.324;2023-04-09T10:16:01;9.93;;;9.02;;
79460;SDS011;68929;42.666;23.324;2023-04-09T10:18:28;11.20;;;9.93;;
79460;SDS011;68929;42.666;23.324;2023-04-09T10:20:58;10.48;;;9.57;;
79460;SDS011;68929;42.666;23.324;2023-04-09T10:23:55;10.63;;;9.63;;
79460;SDS011;68929;42.666;23.324;2023-04-09T10:26:31;10.35;;;9.25;;
79460;SDS011;68929;42.666;23.324;2023-04-09T10:34:33;9.65;;;8.80;;
79460;SDS011;68929;42.666;23.324;2023-04-09T10:37:01;10.80;;;9.80;;
79460;SDS011;68929;42.666;23.324;2023-04-09T10:39:29;9.98;;;9.00;;
79460;SDS011;68929;42.666;23.324;2023-04-09T10:41:57;10.65;;;9.13;;
79460;SDS011;68929;42.666;23.324;2023-04-09T10:44:26;9.75;;;8.85;;
79460;SDS011;68929;42.666;23.324;2023-04-09T10:46:55;10.18;;;9.18;;
79460;SDS011;68929;42.666;23.324;2023-04-09T10:49:21;10.23;;;9.23;;
79460;SDS011;68929;42.666;23.324;2023-04-09T11:02:01;9.15;;;8.35;;
79460;SDS011;68929;42.666;23.324;2023-04-09T11:07:21;9.53;;;8.57;;
79460;SDS011;68929;42.666;23.324;2023-04-09T11:09:48;10.60;;;9.48;;
79460;SDS011;68929;42.666;23.324;2023-04-09T11:12:16;9.93;;;9.02;;
79460;SDS011;68929;42.666;23.324;2023-04-09T11:14:41;9.23;;;8.43;;
79460;SDS011;68929;42.666;23.324;2023-04-09T11:17:06;9.40;;;8.50;;
79460;SDS011;68929;42.666;23.324;2023-04-09T11:19:34;9.68;;;8.70;;
79460;SDS011;68929;42.666;23.324;2023-04-09T11:22:02;9.55;;;8.65;;
79460;SDS011;68929;42.666;23.324;2023-04-09T11:24:40;9.40;;;8.50;;
79460;SDS011;68929;42.666;23.324;2023-04-09T11:27:09;9.75;;;8.85;;
79460;SDS011;68929;42.666;23.324;2023-04-09T11:29:35;8.88;;;8.07;;
79460;SDS011;68929;42.666;23.324;2023-04-09T11:32:00;8.80;;;8.00;;
79460;SDS011;68929;42.666;23.324;2023-04-09T11:34:27;9.38;;;8.57;;
79460;SDS011;68929;42.666;23.324;2023-04-09T11:36:52;10.32;;;9.32;;
79460;SDS011;68929;42.666;23.324;2023-04-09T11:39:18;9.63;;;8.73;;
79460;SDS011;68929;42.666;23.324;2023-04-09T11:41:43;9.60;;;8.70;;
79460;SDS011;68929;42.666;23.324;2023-04-09T11:44:12;9.65;;;8.77;;
79460;SDS011;68929;42.666;23.324;2023-04-09T11:46:38;10.50;;;9.50;;
79460;SDS011;68929;42.666;23.324;2023-04-09T11:49:04;9.70;;;8.80;;
79460;SDS011;68929;42.666;23.324;2023-04-09T11:51:30;12.07;;;8.50;;
79460;SDS011;68929;42.666;23.324;2023-04-09T11:54:06;9.43;;;8.52;;
79460;SDS011;68929;42.666;23.324;2023-04-09T11:56:35;10.88;;;8.93;;
79460;SDS011;68929;42.666;23.324;2023-04-09T11:59:01;8.65;;;7.85;;
79460;SDS011;68929;42.666;23.324;2023-04-09T12:01:30;9.93;;;9.02;;
79460;SDS011;68929;42.666;23.324;2023-04-09T12:03:56;8.95;;;8.10;;
79460;SDS011;68929;42.666;23.324;2023-04-09T12:06:22;10.68;;;8.60;;
79460;SDS011;68929;42.666;23.324;2023-04-09T12:08:55;9.00;;;8.10;;
79460;SDS011;68929;42.666;23.324;2023-04-09T12:11:26;9.85;;;8.85;;
79460;SDS011;68929;42.666;23.324;2023-04-09T12:14:01;10.07;;;9.07;;
79460;SDS011;68929;42.666;23.324;2023-04-09T12:16:31;10.20;;;9.20;;
79460;SDS011;68929;42.666;23.324;2023-04-09T12:19:02;10.73;;;9.63;;
79460;SDS011;68929;42.666;23.324;2023-04-09T12:21:49;10.00;;;9.10;;
79460;SDS011;68929;42.666;23.324;2023-04-09T12:24:18;9.43;;;8.52;;
79460;SDS011;68929;42.666;23.324;2023-04-09T12:26:44;10.23;;;9.32;;
79460;SDS011;68929;42.666;23.324;2023-04-09T12:29:10;9.25;;;8.35;;
79460;SDS011;68929;42.666;23.324;2023-04-09T12:31:38;9.10;;;8.30;;
79460;SDS011;68929;42.666;23.324;2023-04-09T12:34:03;9.38;;;8.48;;
79460;SDS011;68929;42.666;23.324;2023-04-09T12:36:28;9.27;;;8.40;;
79460;SDS011;68929;42.666;23.324;2023-04-09T12:38:59;9.40;;;8.50;;
79460;SDS011;68929;42.666;23.324;2023-04-09T12:41:25;8.93;;;8.13;;
79460;SDS011;68929;42.666;23.324;2023-04-09T12:43:51;8.48;;;7.68;;
79460;SDS011;68929;42.666;23.324;2023-04-09T12:46:16;9.75;;;8.82;;
79460;SDS011;68929;42.666;23.324;2023-04-09T12:48:43;9.20;;;8.23;;
79460;SDS011;68929;42.666;23.324;2023-04-09T12:51:09;8.57;;;7.78;;
79460;SDS011;68929;42.666;23.324;2023-04-09T12:53:35;9.25;;;8.30;;
79460;SDS011;68929;42.666;23.324;2023-04-09T12:56:00;9.98;;;9.02;;
79460;SDS011;68929;42.666;23.324;2023-04-09T12:58:26;8.25;;;7.45;;
79460;SDS011;68929;42.666;23.324;2023-04-09T13:00:52;8.38;;;7.57;;
79460;SDS011;68929;42.666;23.324;2023-04-09T13:03:22;10.05;;;8.32;;
79460;SDS011;68929;42.666;23.324;2023-04-09T13:05:48;8.32;;;7.45;;
79460;SDS011;68929;42.666;23.324;2023-04-09T13:08:14;8.20;;;7.40;;
79460;SDS011;68929;42.666;23.324;2023-04-09T13:10:40;8.48;;;7.60;;
79460;SDS011;68929;42.666;23.324;2023-04-09T13:13:06;8.90;;;8.13;;
79460;SDS011;68929;42.666;23.324;2023-04-09T13:15:36;7.82;;;6.90;;
79460;SDS011;68929;42.666;23.324;2023-04-09T13:18:02;7.82;;;7.03;;
79460;SDS011;68929;42.666;23.324;2023-04-09T13:20:27;7.53;;;6.82;;
79460;SDS011;68929;42.666;23.324;2023-04-09T13:22:53;7.47;;;6.78;;
79460;SDS011;68929;42.666;23.324;2023-04-09T13:25:18;7.50;;;6.80;;
79460;SDS011;68929;42.666;23.324;2023-04-09T13:27:44;9.30;;;7.70;;
79460;SDS011;68929;42.666;23.324;2023-04-09T13:30:10;7.78;;;7.07;;
79460;SDS011;68929;42.666;23.324;2023-04-09T13:32:35;8.45;;;7.65;;
79460;SDS011;68929;42.666;23.324;2023-04-09T13:35:01;7.72;;;7.03;;
79460;SDS011;68929;42.666;23.324;2023-04-09T13:37:26;7.97;;;7.18;;
79460;SDS011;68929;42.666;23.324;2023-04-09T13:39:51;8.25;;;7.55;;
79460;SDS011;68929;42.666;23.324;2023-04-09T13:42:17;8.70;;;7.80;;
79460;SDS011;68929;42.666;23.324;2023-04-09T13:44:43;8.23;;;7.53;;
79460;SDS011;68929;42.666;23.324;2023-04-09T13:47:11;7.90;;;7.20;;
79460;SDS011;68929;42.666;23.324;2023-04-09T13:49:38;8.88;;;8.00;;
79460;SDS011;68929;42.666;23.324;2023-04-09T13:52:04;7.93;;;7.13;;
79460;SDS011;68929;42.666;23.324;2023-04-09T13:54:30;9.10;;;8.20;;
79460;SDS011;68929;42.666;23.324;2023-04-09T13:56:56;7.40;;;6.70;;
79460;SDS011;68929;42.666;23.324;2023-04-09T13:59:21;9.02;;;7.68;;
79460;SDS011;68929;42.666;23.324;2023-04-09T14:01:47;9.82;;;7.55;;
79460;SDS011;68929;42.666;23.324;2023-04-09T14:04:12;7.63;;;6.90;;
79460;SDS011;68929;42.666;23.324;2023-04-09T14:06:37;8.48;;;7.68;;
79460;SDS011;68929;42.666;23.324;2023-04-09T14:09:03;8.27;;;7.47;;
79460;SDS011;68929;42.666;23.324;2023-04-09T14:11:28;9.55;;;7.72;;
79460;SDS011;68929;42.666;23.324;2023-04-09T14:13:54;8.48;;;6.93;;
79460;SDS011;68929;42.666;23.324;2023-04-09T14:16:19;7.63;;;6.93;;
79460;SDS011;68929;42.666;23.324;2023-04-09T14:18:45;8.18;;;7.38;;
79460;SDS011;68929;42.666;23.324;2023-04-09T14:21:10;8.60;;;7.70;;
79460;SDS011;68929;42.666;23.324;2023-04-09T14:23:37;7.30;;;6.60;;
79460;SDS011;68929;42.666;23.324;2023-04-09T14:26:03;8.57;;;7.68;;
79460;SDS011;68929;42.666;23.324;2023-04-09T14:28:30;8.40;;;7.60;;
79460;SDS011;68929;42.666;23.324;2023-04-09T14:30:56;8.63;;;7.60;;
79460;SDS011;68929;42.666;23.324;2023-04-09T14:33:23;8.10;;;7.30;;
79460;SDS011;68929;42.666;23.324;2023-04-09T14:35:49;8.82;;;7.93;;
79460;SDS011;68929;42.666;23.324;2023-04-09T14:38:14;8.32;;;7.53;;
79460;SDS011;68929;42.666;23.324;2023-04-09T14:40:40;8.60;;;7.80;;
79460;SDS011;68929;42.666;23.324;2023-04-09T14:43:06;8.18;;;7.45;;
79460;SDS011;68929;42.666;23.324;2023-04-09T14:45:31;7.97;;;7.18;;
79460;SDS011;68929;42.666;23.324;2023-04-09T14:47:56;7.93;;;7.18;;
79460;SDS011;68929;42.666;23.324;2023-04-09T14:50:22;7.82;;;7.13;;